sensor_id;sensor_type;location;lat;lon;timestamp;P1;durP1;ratioP1;P2;durP2;ratioP2
54037;SDS011;39954;48.844;9.726;2022-12-11T00:00:58;93.43;;;31.00;;
54037;SDS011;39954;48.844;9.726;2022-12-11T00:02:04;84.75;;;29.90;;
54037;SDS011;39954;48.844;9.726;2022-12-11T00:03:13;75.35;;;28.23;;
54037;SDS011;39954;48.844;9.726;2022-12-11T00:04:19;73.32;;;27.10;;
54037;SDS011;39954;48.844;9.726;2022-12-11T00:05:26;58.33;;;23.27;;
54037;SDS011;39954;48.844;9.726;2022-12-11T00:06:29;56.85;;;22.80;;
54037;SDS011;39954;48.844;9.726;2022-12-11T00:07:40;57.88;;;23.33;;
54037;SDS011;39954;48.844;9.726;2022-12-11T00:08:44;65.47;;;25.77;;
54037;SDS011;39954;48.844;9.726;2022-12-11T00:09:54;89.03;;;31.25;;
54037;SDS011;39954;48.844;9.726;2022-12-11T00:10:57;77.28;;;28.17;;
54037;SDS011;39954;48.844;9.726;2022-12-11T00:12:04;77.13;;;29.90;;
54037;SDS011;39954;48.844;9.726;2022-12-11T00:13:10;83.05;;;29.67;;
54037;SDS011;39954;48.844;9.726;2022-12-11T00:14:18;72.85;;;27.50;;
54037;SDS011;39954;48.844;9.726;2022-12-11T00:15:21;76.68;;;28.98;;
54037;SDS011;39954;48.844;9.726;2022-12-11T00:16:27;83.00;;;29.77;;
54037;SDS011;39954;48.844;9.726;2022-12-11T00:17:34;84.90;;;31.02;;
54037;SDS011;39954;48.844;9.726;2022-12-11T00:18:40;112.60;;;36.63;;
54037;SDS011;39954;48.844;9.726;2022-12-11T00:19:47;99.70;;;34.13;;
54037;SDS011;39954;48.844;9.726;2022-12-11T00:20:53;96.18;;;32.83;;
54037;SDS011;39954;48.844;9.726;2022-12-11T00:21:56;81.50;;;28.75;;
54037;SDS011;39954;48.844;9.726;2022-12-11T00:23:03;73.53;;;28.25;;
54037;SDS011;39954;48.844;9.726;2022-12-11T00:24:08;82.50;;;29.95;;
54037;SDS011;39954;48.844;9.726;2022-12-11T00:25:14;82.90;;;31.20;;
54037;SDS011;39954;48.844;9.726;2022-12-11T00:26:18;77.80;;;29.60;;
54037;SDS011;39954;48.844;9.726;2022-12-11T00:27:23;87.85;;;32.13;;
54037;SDS011;39954;48.844;9.726;2022-12-11T00:28:31;69.35;;;28.70;;
54037;SDS011;39954;48.844;9.726;2022-12-11T00:29:38;71.60;;;28.10;;
54037;SDS011;39954;48.844;9.726;2022-12-11T00:30:41;66.13;;;27.90;;
54037;SDS011;39954;48.844;9.726;2022-12-11T00:31:47;64.88;;;26.30;;
54037;SDS011;39954;48.844;9.726;2022-12-11T00:32:54;68.40;;;26.35;;
54037;SDS011;39954;48.844;9.726;2022-12-11T00:34:02;69.88;;;27.13;;
54037;SDS011;39954;48.844;9.726;2022-12-11T00:35:06;76.30;;;28.92;;
54037;SDS011;39954;48.844;9.726;2022-12-11T00:36:15;68.53;;;27.67;;
54037;SDS011;39954;48.844;9.726;2022-12-11T00:37:19;57.50;;;25.00;;
54037;SDS011;39954;48.844;9.726;2022-12-11T00:38:26;59.05;;;23.92;;
54037;SDS011;39954;48.844;9.726;2022-12-11T00:39:29;57.60;;;24.10;;
54037;SDS011;39954;48.844;9.726;2022-12-11T00:40:35;67.60;;;27.55;;
54037;SDS011;39954;48.844;9.726;2022-12-11T00:41:39;58.33;;;24.85;;
54037;SDS011;39954;48.844;9.726;2022-12-11T00:42:44;62.58;;;25.92;;
54037;SDS011;39954;48.844;9.726;2022-12-11T00:43:48;63.65;;;25.95;;
54037;SDS011;39954;48.844;9.726;2022-12-11T00:44:58;58.70;;;23.88;;
54037;SDS011;39954;48.844;9.726;2022-12-11T00:46:04;58.70;;;23.98;;
54037;SDS011;39954;48.844;9.726;2022-12-11T00:47:09;63.20;;;25.60;;
54037;SDS011;39954;48.844;9.726;2022-12-11T00:48:16;58.10;;;25.67;;
54037;SDS011;39954;48.844;9.726;2022-12-11T00:49:19;59.35;;;24.02;;
54037;SDS011;39954;48.844;9.726;2022-12-11T00:50:24;66.45;;;26.25;;
54037;SDS011;39954;48.844;9.726;2022-12-11T00:51:26;67.90;;;26.88;;
54037;SDS011;39954;48.844;9.726;2022-12-11T00:52:31;57.97;;;24.60;;
54037;SDS011;39954;48.844;9.726;2022-12-11T00:53:33;55.47;;;22.13;;
54037;SDS011;39954;48.844;9.726;2022-12-11T00:54:38;51.90;;;20.27;;
54037;SDS011;39954;48.844;9.726;2022-12-11T00:55:41;45.88;;;19.98;;
54037;SDS011;39954;48.844;9.726;2022-12-11T00:56:46;56.65;;;22.17;;
54037;SDS011;39954;48.844;9.726;2022-12-11T00:57:51;54.03;;;22.48;;
54037;SDS011;39954;48.844;9.726;2022-12-11T00:58:54;52.45;;;22.60;;
54037;SDS011;39954;48.844;9.726;2022-12-11T00:59:59;56.10;;;22.25;;
54037;SDS011;39954;48.844;9.726;2022-12-11T01:01:04;49.67;;;21.45;;
54037;SDS011;39954;48.844;9.726;2022-12-11T01:02:10;52.28;;;21.33;;
54037;SDS011;39954;48.844;9.726;2022-12-11T01:03:13;44.15;;;20.20;;
54037;SDS011;39954;48.844;9.726;2022-12-11T01:04:20;47.28;;;21.00;;
54037;SDS011;39954;48.844;9.726;2022-12-11T01:05:23;51.15;;;21.60;;
54037;SDS011;39954;48.844;9.726;2022-12-11T01:06:28;52.35;;;22.27;;
54037;SDS011;39954;48.844;9.726;2022-12-11T01:07:31;53.65;;;22.08;;
54037;SDS011;39954;48.844;9.726;2022-12-11T01:08:35;51.38;;;21.52;;
54037;SDS011;39954;48.844;9.726;2022-12-11T01:09:39;49.08;;;21.75;;
54037;SDS011;39954;48.844;9.726;2022-12-11T01:11:00;48.88;;;21.33;;
54037;SDS011;39954;48.844;9.726;2022-12-11T01:12:05;48.97;;;22.02;;
54037;SDS011;39954;48.844;9.726;2022-12-11T01:13:08;49.90;;;22.20;;
54037;SDS011;39954;48.844;9.726;2022-12-11T01:14:14;51.03;;;22.48;;
54037;SDS011;39954;48.844;9.726;2022-12-11T01:15:17;52.15;;;22.83;;
54037;SDS011;39954;48.844;9.726;2022-12-11T01:16:23;49.03;;;21.45;;
54037;SDS011;39954;48.844;9.726;2022-12-11T01:17:28;49.45;;;22.38;;
54037;SDS011;39954;48.844;9.726;2022-12-11T01:18:33;48.58;;;22.50;;
54037;SDS011;39954;48.844;9.726;2022-12-11T01:19:38;53.10;;;21.67;;
54037;SDS011;39954;48.844;9.726;2022-12-11T01:20:41;52.10;;;22.17;;
54037;SDS011;39954;48.844;9.726;2022-12-11T01:21:46;52.30;;;21.83;;
54037;SDS011;39954;48.844;9.726;2022-12-11T01:22:52;49.30;;;20.70;;
54037;SDS011;39954;48.844;9.726;2022-12-11T01:23:58;54.53;;;23.05;;
54037;SDS011;39954;48.844;9.726;2022-12-11T01:25:00;54.83;;;23.23;;
54037;SDS011;39954;48.844;9.726;2022-12-11T01:26:06;58.78;;;25.73;;
54037;SDS011;39954;48.844;9.726;2022-12-11T01:27:10;65.90;;;24.52;;
54037;SDS011;39954;48.844;9.726;2022-12-11T01:28:15;64.15;;;25.25;;
54037;SDS011;39954;48.844;9.726;2022-12-11T01:29:17;68.18;;;27.58;;
54037;SDS011;39954;48.844;9.726;2022-12-11T01:30:23;68.15;;;27.90;;
54037;SDS011;39954;48.844;9.726;2022-12-11T01:31:26;71.63;;;27.27;;
54037;SDS011;39954;48.844;9.726;2022-12-11T01:32:31;69.72;;;27.20;;
54037;SDS011;39954;48.844;9.726;2022-12-11T01:33:37;69.00;;;26.38;;
54037;SDS011;39954;48.844;9.726;2022-12-11T01:34:42;68.35;;;29.13;;
54037;SDS011;39954;48.844;9.726;2022-12-11T01:35:44;71.55;;;29.65;;
54037;SDS011;39954;48.844;9.726;2022-12-11T01:36:50;69.78;;;28.67;;
54037;SDS011;39954;48.844;9.726;2022-12-11T01:37:53;65.78;;;27.20;;
54037;SDS011;39954;48.844;9.726;2022-12-11T01:38:58;68.97;;;27.70;;
54037;SDS011;39954;48.844;9.726;2022-12-11T01:40:00;65.18;;;26.92;;
54037;SDS011;39954;48.844;9.726;2022-12-11T01:41:06;65.93;;;26.60;;
54037;SDS011;39954;48.844;9.726;2022-12-11T01:42:09;53.00;;;23.55;;
54037;SDS011;39954;48.844;9.726;2022-12-11T01:43:20;54.00;;;23.42;;
54037;SDS011;39954;48.844;9.726;2022-12-11T01:45:57;47.15;;;19.52;;
54037;SDS011;39954;48.844;9.726;2022-12-11T01:47:02;41.60;;;17.10;;
54037;SDS011;39954;48.844;9.726;2022-12-11T01:48:06;39.08;;;17.10;;
54037;SDS011;39954;48.844;9.726;2022-12-11T01:49:16;43.70;;;17.98;;
54037;SDS011;39954;48.844;9.726;2022-12-11T01:50:21;47.60;;;19.90;;
54037;SDS011;39954;48.844;9.726;2022-12-11T01:51:27;44.70;;;18.63;;
54037;SDS011;39954;48.844;9.726;2022-12-11T01:52:34;47.63;;;18.85;;
54037;SDS011;39954;48.844;9.726;2022-12-11T01:53:38;49.53;;;19.88;;
54037;SDS011;39954;48.844;9.726;2022-12-11T01:54:46;41.25;;;18.27;;
54037;SDS011;39954;48.844;9.726;2022-12-11T01:55:50;41.72;;;18.38;;
54037;SDS011;39954;48.844;9.726;2022-12-11T01:56:59;45.00;;;20.13;;
54037;SDS011;39954;48.844;9.726;2022-12-11T01:58:07;45.05;;;19.20;;
54037;SDS011;39954;48.844;9.726;2022-12-11T01:59:13;48.22;;;19.25;;
54037;SDS011;39954;48.844;9.726;2022-12-11T02:00:21;51.33;;;21.08;;
54037;SDS011;39954;48.844;9.726;2022-12-11T02:01:24;48.80;;;20.38;;
54037;SDS011;39954;48.844;9.726;2022-12-11T02:02:35;50.17;;;20.83;;
54037;SDS011;39954;48.844;9.726;2022-12-11T02:03:37;49.60;;;20.67;;
54037;SDS011;39954;48.844;9.726;2022-12-11T02:04:45;46.53;;;19.58;;
54037;SDS011;39954;48.844;9.726;2022-12-11T02:05:49;47.72;;;20.92;;
54037;SDS011;39954;48.844;9.726;2022-12-11T02:06:53;48.35;;;20.60;;
54037;SDS011;39954;48.844;9.726;2022-12-11T02:07:57;51.15;;;20.95;;
54037;SDS011;39954;48.844;9.726;2022-12-11T02:09:04;52.17;;;22.23;;
54037;SDS011;39954;48.844;9.726;2022-12-11T02:10:10;52.20;;;21.05;;
54037;SDS011;39954;48.844;9.726;2022-12-11T02:11:17;53.72;;;21.27;;
54037;SDS011;39954;48.844;9.726;2022-12-11T02:12:25;58.90;;;21.65;;
54037;SDS011;39954;48.844;9.726;2022-12-11T02:13:36;41.00;;;18.13;;
54037;SDS011;39954;48.844;9.726;2022-12-11T02:14:47;46.08;;;19.20;;
54037;SDS011;39954;48.844;9.726;2022-12-11T02:15:59;42.63;;;18.30;;
54037;SDS011;39954;48.844;9.726;2022-12-11T02:17:08;41.63;;;16.35;;
54037;SDS011;39954;48.844;9.726;2022-12-11T02:18:19;45.90;;;18.08;;
54037;SDS011;39954;48.844;9.726;2022-12-11T02:19:42;42.88;;;17.70;;
54037;SDS011;39954;48.844;9.726;2022-12-11T02:20:54;45.67;;;16.75;;
54037;SDS011;39954;48.844;9.726;2022-12-11T02:22:07;38.90;;;14.00;;
54037;SDS011;39954;48.844;9.726;2022-12-11T02:23:28;36.90;;;14.90;;
54037;SDS011;39954;48.844;9.726;2022-12-11T02:24:49;34.47;;;14.32;;
54037;SDS011;39954;48.844;9.726;2022-12-11T02:26:06;41.22;;;14.98;;
54037;SDS011;39954;48.844;9.726;2022-12-11T02:27:24;34.42;;;14.15;;
54037;SDS011;39954;48.844;9.726;2022-12-11T02:28:34;37.30;;;15.35;;
54037;SDS011;39954;48.844;9.726;2022-12-11T02:29:43;34.20;;;13.63;;
54037;SDS011;39954;48.844;9.726;2022-12-11T02:30:53;33.75;;;13.02;;
54037;SDS011;39954;48.844;9.726;2022-12-11T02:32:02;29.67;;;12.35;;
54037;SDS011;39954;48.844;9.726;2022-12-11T02:33:07;32.17;;;14.00;;
54037;SDS011;39954;48.844;9.726;2022-12-11T02:34:15;33.65;;;14.10;;
54037;SDS011;39954;48.844;9.726;2022-12-11T02:35:24;35.70;;;14.90;;
54037;SDS011;39954;48.844;9.726;2022-12-11T02:36:34;44.08;;;16.60;;
54037;SDS011;39954;48.844;9.726;2022-12-11T02:37:40;49.03;;;18.23;;
54037;SDS011;39954;48.844;9.726;2022-12-11T02:38:48;40.67;;;15.63;;
54037;SDS011;39954;48.844;9.726;2022-12-11T02:39:54;35.00;;;14.30;;
54037;SDS011;39954;48.844;9.726;2022-12-11T02:41:00;36.63;;;16.35;;
54037;SDS011;39954;48.844;9.726;2022-12-11T02:42:07;33.80;;;14.70;;
54037;SDS011;39954;48.844;9.726;2022-12-11T02:43:12;40.25;;;17.65;;
54037;SDS011;39954;48.844;9.726;2022-12-11T02:44:23;40.38;;;16.63;;
54037;SDS011;39954;48.844;9.726;2022-12-11T02:45:28;37.63;;;16.55;;
54037;SDS011;39954;48.844;9.726;2022-12-11T02:46:35;45.60;;;17.75;;
54037;SDS011;39954;48.844;9.726;2022-12-11T02:47:38;45.03;;;17.60;;
54037;SDS011;39954;48.844;9.726;2022-12-11T02:48:44;41.90;;;17.88;;
54037;SDS011;39954;48.844;9.726;2022-12-11T02:49:50;35.22;;;14.77;;
54037;SDS011;39954;48.844;9.726;2022-12-11T02:50:57;30.25;;;13.57;;
54037;SDS011;39954;48.844;9.726;2022-12-11T02:52:00;30.08;;;12.35;;
54037;SDS011;39954;48.844;9.726;2022-12-11T02:53:08;31.70;;;13.32;;
54037;SDS011;39954;48.844;9.726;2022-12-11T02:54:14;30.95;;;13.77;;
54037;SDS011;39954;48.844;9.726;2022-12-11T02:55:21;36.05;;;13.18;;
54037;SDS011;39954;48.844;9.726;2022-12-11T02:56:29;34.33;;;12.55;;
54037;SDS011;39954;48.844;9.726;2022-12-11T02:57:37;36.45;;;14.02;;
54037;SDS011;39954;48.844;9.726;2022-12-11T02:58:47;27.52;;;11.68;;
54037;SDS011;39954;48.844;9.726;2022-12-11T03:00:02;32.92;;;11.90;;
54037;SDS011;39954;48.844;9.726;2022-12-11T03:01:09;24.80;;;11.40;;
54037;SDS011;39954;48.844;9.726;2022-12-11T03:02:12;31.08;;;12.93;;
54037;SDS011;39954;48.844;9.726;2022-12-11T03:03:20;33.08;;;12.52;;
54037;SDS011;39954;48.844;9.726;2022-12-11T03:04:22;30.83;;;12.10;;
54037;SDS011;39954;48.844;9.726;2022-12-11T03:05:27;32.70;;;12.27;;
54037;SDS011;39954;48.844;9.726;2022-12-11T03:06:34;33.33;;;12.20;;
54037;SDS011;39954;48.844;9.726;2022-12-11T03:07:41;32.55;;;13.30;;
54037;SDS011;39954;48.844;9.726;2022-12-11T03:08:48;27.48;;;11.98;;
54037;SDS011;39954;48.844;9.726;2022-12-11T03:09:52;34.83;;;12.18;;
54037;SDS011;39954;48.844;9.726;2022-12-11T03:10:57;29.33;;;11.75;;
54037;SDS011;39954;48.844;9.726;2022-12-11T03:12:00;24.73;;;11.32;;
54037;SDS011;39954;48.844;9.726;2022-12-11T03:13:05;30.88;;;12.68;;
54037;SDS011;39954;48.844;9.726;2022-12-11T03:14:10;32.30;;;13.50;;
54037;SDS011;39954;48.844;9.726;2022-12-11T03:15:16;33.25;;;13.88;;
54037;SDS011;39954;48.844;9.726;2022-12-11T03:16:27;33.72;;;14.32;;
54037;SDS011;39954;48.844;9.726;2022-12-11T03:17:37;41.15;;;15.40;;
54037;SDS011;39954;48.844;9.726;2022-12-11T03:18:48;31.23;;;13.55;;
54037;SDS011;39954;48.844;9.726;2022-12-11T03:20:00;35.88;;;14.60;;
54037;SDS011;39954;48.844;9.726;2022-12-11T03:21:11;30.60;;;13.48;;
54037;SDS011;39954;48.844;9.726;2022-12-11T03:22:20;31.70;;;14.57;;
54037;SDS011;39954;48.844;9.726;2022-12-11T03:23:33;31.40;;;13.40;;
54037;SDS011;39954;48.844;9.726;2022-12-11T03:24:43;34.33;;;12.85;;
54037;SDS011;39954;48.844;9.726;2022-12-11T03:25:56;33.15;;;13.10;;
54037;SDS011;39954;48.844;9.726;2022-12-11T03:27:05;38.17;;;15.10;;
54037;SDS011;39954;48.844;9.726;2022-12-11T03:28:17;30.38;;;12.98;;
54037;SDS011;39954;48.844;9.726;2022-12-11T03:29:25;31.02;;;13.20;;
54037;SDS011;39954;48.844;9.726;2022-12-11T03:30:37;34.72;;;15.80;;
54037;SDS011;39954;48.844;9.726;2022-12-11T03:31:43;29.90;;;12.07;;
54037;SDS011;39954;48.844;9.726;2022-12-11T03:33:11;33.70;;;13.68;;
54037;SDS011;39954;48.844;9.726;2022-12-11T03:34:33;36.83;;;13.82;;
54037;SDS011;39954;48.844;9.726;2022-12-11T03:36:00;34.42;;;13.73;;
54037;SDS011;39954;48.844;9.726;2022-12-11T03:37:13;37.45;;;14.20;;
54037;SDS011;39954;48.844;9.726;2022-12-11T03:38:43;38.63;;;14.75;;
54037;SDS011;39954;48.844;9.726;2022-12-11T03:40:03;31.05;;;12.50;;
54037;SDS011;39954;48.844;9.726;2022-12-11T03:41:17;31.85;;;14.15;;
54037;SDS011;39954;48.844;9.726;2022-12-11T03:42:43;34.88;;;14.43;;
54037;SDS011;39954;48.844;9.726;2022-12-11T03:43:50;39.33;;;15.07;;
54037;SDS011;39954;48.844;9.726;2022-12-11T03:45:14;40.67;;;15.55;;
54037;SDS011;39954;48.844;9.726;2022-12-11T03:47:10;31.13;;;14.48;;
54037;SDS011;39954;48.844;9.726;2022-12-11T03:48:44;37.47;;;14.98;;
54037;SDS011;39954;48.844;9.726;2022-12-11T03:50:06;42.28;;;16.85;;
54037;SDS011;39954;48.844;9.726;2022-12-11T03:51:28;40.70;;;16.38;;
54037;SDS011;39954;48.844;9.726;2022-12-11T03:52:32;36.28;;;16.17;;
54037;SDS011;39954;48.844;9.726;2022-12-11T03:53:45;33.25;;;16.02;;
54037;SDS011;39954;48.844;9.726;2022-12-11T03:54:48;39.78;;;17.65;;
54037;SDS011;39954;48.844;9.726;2022-12-11T03:55:54;38.80;;;17.23;;
54037;SDS011;39954;48.844;9.726;2022-12-11T03:57:00;41.65;;;16.90;;
54037;SDS011;39954;48.844;9.726;2022-12-11T03:58:07;36.95;;;15.10;;
54037;SDS011;39954;48.844;9.726;2022-12-11T03:59:09;37.20;;;15.60;;
54037;SDS011;39954;48.844;9.726;2022-12-11T04:00:15;32.88;;;15.57;;
54037;SDS011;39954;48.844;9.726;2022-12-11T04:01:19;34.10;;;15.45;;
54037;SDS011;39954;48.844;9.726;2022-12-11T04:02:27;36.95;;;15.63;;
54037;SDS011;39954;48.844;9.726;2022-12-11T04:03:29;35.65;;;14.80;;
54037;SDS011;39954;48.844;9.726;2022-12-11T04:04:35;31.67;;;13.82;;
54037;SDS011;39954;48.844;9.726;2022-12-11T04:05:38;33.60;;;13.77;;
54037;SDS011;39954;48.844;9.726;2022-12-11T04:06:43;34.10;;;14.38;;
54037;SDS011;39954;48.844;9.726;2022-12-11T04:07:45;33.20;;;13.18;;
54037;SDS011;39954;48.844;9.726;2022-12-11T04:08:50;30.15;;;12.88;;
54037;SDS011;39954;48.844;9.726;2022-12-11T04:09:52;30.05;;;12.65;;
54037;SDS011;39954;48.844;9.726;2022-12-11T04:10:58;32.92;;;13.45;;
54037;SDS011;39954;48.844;9.726;2022-12-11T04:12:15;36.85;;;14.13;;
54037;SDS011;39954;48.844;9.726;2022-12-11T04:13:20;35.60;;;15.68;;
54037;SDS011;39954;48.844;9.726;2022-12-11T04:14:22;36.05;;;14.07;;
54037;SDS011;39954;48.844;9.726;2022-12-11T04:15:39;29.15;;;13.30;;
54037;SDS011;39954;48.844;9.726;2022-12-11T04:16:44;32.83;;;13.70;;
54037;SDS011;39954;48.844;9.726;2022-12-11T04:17:50;35.85;;;14.30;;
54037;SDS011;39954;48.844;9.726;2022-12-11T04:19:07;31.65;;;13.10;;
54037;SDS011;39954;48.844;9.726;2022-12-11T04:20:26;34.13;;;13.90;;
54037;SDS011;39954;48.844;9.726;2022-12-11T04:21:43;39.55;;;13.85;;
54037;SDS011;39954;48.844;9.726;2022-12-11T04:23:02;29.90;;;12.85;;
54037;SDS011;39954;48.844;9.726;2022-12-11T04:24:19;32.67;;;13.57;;
54037;SDS011;39954;48.844;9.726;2022-12-11T04:25:24;32.30;;;13.20;;
54037;SDS011;39954;48.844;9.726;2022-12-11T04:26:27;30.08;;;13.45;;
54037;SDS011;39954;48.844;9.726;2022-12-11T04:27:32;37.25;;;15.07;;
54037;SDS011;39954;48.844;9.726;2022-12-11T04:28:49;32.75;;;13.93;;
54037;SDS011;39954;48.844;9.726;2022-12-11T04:29:54;35.67;;;13.88;;
54037;SDS011;39954;48.844;9.726;2022-12-11T04:30:57;35.92;;;13.77;;
54037;SDS011;39954;48.844;9.726;2022-12-11T04:32:02;34.03;;;12.88;;
54037;SDS011;39954;48.844;9.726;2022-12-11T04:33:07;35.47;;;14.43;;
54037;SDS011;39954;48.844;9.726;2022-12-11T04:34:11;40.20;;;15.25;;
54037;SDS011;39954;48.844;9.726;2022-12-11T04:35:14;41.92;;;17.02;;
54037;SDS011;39954;48.844;9.726;2022-12-11T04:36:19;41.45;;;15.57;;
54037;SDS011;39954;48.844;9.726;2022-12-11T04:37:27;44.25;;;16.27;;
54037;SDS011;39954;48.844;9.726;2022-12-11T04:38:40;46.63;;;16.77;;
54037;SDS011;39954;48.844;9.726;2022-12-11T04:39:53;37.92;;;15.93;;
54037;SDS011;39954;48.844;9.726;2022-12-11T04:41:04;35.25;;;14.02;;
54037;SDS011;39954;48.844;9.726;2022-12-11T04:42:26;36.75;;;15.45;;
54037;SDS011;39954;48.844;9.726;2022-12-11T04:43:38;39.10;;;14.98;;
54037;SDS011;39954;48.844;9.726;2022-12-11T04:45:01;41.78;;;13.90;;
54037;SDS011;39954;48.844;9.726;2022-12-11T04:46:25;36.97;;;14.82;;
54037;SDS011;39954;48.844;9.726;2022-12-11T04:47:55;35.35;;;14.13;;
54037;SDS011;39954;48.844;9.726;2022-12-11T04:49:21;38.97;;;15.20;;
54037;SDS011;39954;48.844;9.726;2022-12-11T04:50:35;35.75;;;13.48;;
54037;SDS011;39954;48.844;9.726;2022-12-11T04:51:46;39.13;;;14.55;;
54037;SDS011;39954;48.844;9.726;2022-12-11T04:52:49;38.40;;;15.40;;
54037;SDS011;39954;48.844;9.726;2022-12-11T04:54:03;33.03;;;13.95;;
54037;SDS011;39954;48.844;9.726;2022-12-11T04:55:08;40.38;;;14.07;;
54037;SDS011;39954;48.844;9.726;2022-12-11T04:56:19;50.83;;;18.67;;
54037;SDS011;39954;48.844;9.726;2022-12-11T04:57:43;43.70;;;14.80;;
54037;SDS011;39954;48.844;9.726;2022-12-11T04:58:58;39.08;;;13.90;;
54037;SDS011;39954;48.844;9.726;2022-12-11T05:00:09;38.67;;;15.68;;
54037;SDS011;39954;48.844;9.726;2022-12-11T05:01:23;40.22;;;16.27;;
54037;SDS011;39954;48.844;9.726;2022-12-11T05:02:44;57.20;;;19.63;;
54037;SDS011;39954;48.844;9.726;2022-12-11T05:03:51;50.45;;;18.13;;
54037;SDS011;39954;48.844;9.726;2022-12-11T05:05:07;38.20;;;15.18;;
54037;SDS011;39954;48.844;9.726;2022-12-11T05:06:20;44.65;;;16.13;;
54037;SDS011;39954;48.844;9.726;2022-12-11T05:07:36;41.70;;;15.82;;
54037;SDS011;39954;48.844;9.726;2022-12-11T05:10:17;41.55;;;16.35;;
54037;SDS011;39954;48.844;9.726;2022-12-11T05:11:41;41.00;;;14.57;;
54037;SDS011;39954;48.844;9.726;2022-12-11T05:12:57;40.83;;;15.30;;
54037;SDS011;39954;48.844;9.726;2022-12-11T05:14:03;49.30;;;16.08;;
54037;SDS011;39954;48.844;9.726;2022-12-11T05:15:17;47.95;;;17.02;;
54037;SDS011;39954;48.844;9.726;2022-12-11T05:16:25;47.65;;;17.10;;
54037;SDS011;39954;48.844;9.726;2022-12-11T05:17:38;43.58;;;15.55;;
54037;SDS011;39954;48.844;9.726;2022-12-11T05:18:53;42.55;;;14.95;;
54037;SDS011;39954;48.844;9.726;2022-12-11T05:20:18;44.42;;;15.48;;
54037;SDS011;39954;48.844;9.726;2022-12-11T05:21:34;51.97;;;17.07;;
54037;SDS011;39954;48.844;9.726;2022-12-11T05:23:02;42.72;;;15.98;;
54037;SDS011;39954;48.844;9.726;2022-12-11T05:24:18;42.28;;;15.73;;
54037;SDS011;39954;48.844;9.726;2022-12-11T05:25:52;49.58;;;16.88;;
54037;SDS011;39954;48.844;9.726;2022-12-11T05:27:07;63.58;;;24.20;;
54037;SDS011;39954;48.844;9.726;2022-12-11T05:28:30;44.67;;;18.02;;
54037;SDS011;39954;48.844;9.726;2022-12-11T05:29:51;43.67;;;15.70;;
54037;SDS011;39954;48.844;9.726;2022-12-11T05:31:17;49.90;;;17.13;;
54037;SDS011;39954;48.844;9.726;2022-12-11T05:32:39;46.60;;;16.15;;
54037;SDS011;39954;48.844;9.726;2022-12-11T05:33:54;50.67;;;17.77;;
54037;SDS011;39954;48.844;9.726;2022-12-11T05:35:22;65.47;;;19.40;;
54037;SDS011;39954;48.844;9.726;2022-12-11T05:36:37;51.50;;;17.75;;
54037;SDS011;39954;48.844;9.726;2022-12-11T05:37:54;43.42;;;14.85;;
54037;SDS011;39954;48.844;9.726;2022-12-11T05:39:32;64.68;;;20.80;;
54037;SDS011;39954;48.844;9.726;2022-12-11T05:41:03;46.60;;;16.50;;
54037;SDS011;39954;48.844;9.726;2022-12-11T05:42:10;41.75;;;15.57;;
54037;SDS011;39954;48.844;9.726;2022-12-11T05:43:32;48.17;;;17.08;;
54037;SDS011;39954;48.844;9.726;2022-12-11T05:44:48;59.38;;;18.05;;
54037;SDS011;39954;48.844;9.726;2022-12-11T05:46:05;48.05;;;17.38;;
54037;SDS011;39954;48.844;9.726;2022-12-11T05:47:15;51.08;;;20.10;;
54037;SDS011;39954;48.844;9.726;2022-12-11T05:48:30;46.35;;;17.38;;
54037;SDS011;39954;48.844;9.726;2022-12-11T05:49:35;47.35;;;17.83;;
54037;SDS011;39954;48.844;9.726;2022-12-11T05:51:00;47.92;;;17.67;;
54037;SDS011;39954;48.844;9.726;2022-12-11T05:52:16;51.67;;;17.83;;
54037;SDS011;39954;48.844;9.726;2022-12-11T05:53:26;51.45;;;17.63;;
54037;SDS011;39954;48.844;9.726;2022-12-11T05:54:47;54.97;;;17.83;;
54037;SDS011;39954;48.844;9.726;2022-12-11T05:56:06;51.03;;;17.75;;
54037;SDS011;39954;48.844;9.726;2022-12-11T05:57:16;62.38;;;20.20;;
54037;SDS011;39954;48.844;9.726;2022-12-11T05:58:38;60.65;;;18.60;;
54037;SDS011;39954;48.844;9.726;2022-12-11T06:00:01;51.70;;;17.15;;
54037;SDS011;39954;48.844;9.726;2022-12-11T06:01:28;53.97;;;18.63;;
54037;SDS011;39954;48.844;9.726;2022-12-11T06:02:48;59.40;;;19.20;;
54037;SDS011;39954;48.844;9.726;2022-12-11T06:04:08;56.80;;;19.25;;
54037;SDS011;39954;48.844;9.726;2022-12-11T06:05:17;59.50;;;22.27;;
54037;SDS011;39954;48.844;9.726;2022-12-11T06:06:39;60.65;;;20.13;;
54037;SDS011;39954;48.844;9.726;2022-12-11T06:08:14;64.32;;;22.13;;
54037;SDS011;39954;48.844;9.726;2022-12-11T06:09:29;68.75;;;24.75;;
54037;SDS011;39954;48.844;9.726;2022-12-11T06:10:55;67.65;;;23.35;;
54037;SDS011;39954;48.844;9.726;2022-12-11T06:12:24;74.93;;;25.98;;
54037;SDS011;39954;48.844;9.726;2022-12-11T06:13:51;63.83;;;22.35;;
54037;SDS011;39954;48.844;9.726;2022-12-11T06:15:16;66.45;;;22.42;;
54037;SDS011;39954;48.844;9.726;2022-12-11T06:16:42;66.82;;;25.05;;
54037;SDS011;39954;48.844;9.726;2022-12-11T06:18:02;56.03;;;22.80;;
54037;SDS011;39954;48.844;9.726;2022-12-11T06:19:15;65.07;;;24.60;;
54037;SDS011;39954;48.844;9.726;2022-12-11T06:20:33;66.53;;;24.38;;
54037;SDS011;39954;48.844;9.726;2022-12-11T06:22:05;65.18;;;23.48;;
54037;SDS011;39954;48.844;9.726;2022-12-11T06:23:23;68.80;;;24.85;;
54037;SDS011;39954;48.844;9.726;2022-12-11T06:24:47;72.53;;;24.42;;
54037;SDS011;39954;48.844;9.726;2022-12-11T06:26:18;71.68;;;25.77;;
54037;SDS011;39954;48.844;9.726;2022-12-11T06:27:46;82.88;;;25.80;;
54037;SDS011;39954;48.844;9.726;2022-12-11T06:28:51;92.63;;;27.30;;
54037;SDS011;39954;48.844;9.726;2022-12-11T06:30:17;84.88;;;27.88;;
54037;SDS011;39954;48.844;9.726;2022-12-11T06:31:43;90.22;;;28.38;;
54037;SDS011;39954;48.844;9.726;2022-12-11T06:34:35;70.97;;;27.90;;
54037;SDS011;39954;48.844;9.726;2022-12-11T06:35:55;75.10;;;27.98;;
54037;SDS011;39954;48.844;9.726;2022-12-11T06:37:36;91.38;;;30.15;;
54037;SDS011;39954;48.844;9.726;2022-12-11T06:39:21;93.28;;;29.10;;
54037;SDS011;39954;48.844;9.726;2022-12-11T06:40:53;85.28;;;30.15;;
54037;SDS011;39954;48.844;9.726;2022-12-11T06:42:19;83.32;;;28.95;;
54037;SDS011;39954;48.844;9.726;2022-12-11T06:43:43;104.75;;;32.90;;
54037;SDS011;39954;48.844;9.726;2022-12-11T06:44:58;97.07;;;34.38;;
54037;SDS011;39954;48.844;9.726;2022-12-11T06:46:02;97.00;;;36.65;;
54037;SDS011;39954;48.844;9.726;2022-12-11T06:47:08;105.97;;;38.47;;
54037;SDS011;39954;48.844;9.726;2022-12-11T06:48:10;108.95;;;41.08;;
54037;SDS011;39954;48.844;9.726;2022-12-11T06:49:15;112.40;;;40.33;;
54037;SDS011;39954;48.844;9.726;2022-12-11T06:50:20;105.38;;;39.17;;
54037;SDS011;39954;48.844;9.726;2022-12-11T06:51:22;109.82;;;40.05;;
54037;SDS011;39954;48.844;9.726;2022-12-11T06:52:30;127.78;;;47.15;;
54037;SDS011;39954;48.844;9.726;2022-12-11T06:53:32;106.45;;;37.80;;
54037;SDS011;39954;48.844;9.726;2022-12-11T06:54:37;146.27;;;51.70;;
54037;SDS011;39954;48.844;9.726;2022-12-11T06:55:39;111.85;;;39.80;;
54037;SDS011;39954;48.844;9.726;2022-12-11T06:56:45;96.45;;;34.75;;
54037;SDS011;39954;48.844;9.726;2022-12-11T06:57:48;97.43;;;34.30;;
54037;SDS011;39954;48.844;9.726;2022-12-11T06:58:53;98.72;;;37.20;;